Time;durP1;ratioP1;P1;durP2;ratioP2;P2;SDS_P1;SDS_P2;PMS_P1;PMS_P2;Temp;Humidity;BMP_temperature;BMP_pressure;BME280_temperature;BME280_humidity;BME280_pressure;Samples;Min_cycle;Max_cycle;Signal;HPM_P1;HPM_P2
2023/03/18 00:00:17;;;;;;;0.50;0.50;;;11.30;78.60;;;;;;5073744;28;20457;-80
2023/03/18 00:02:45;;;;;;;0.60;0.40;;;11.30;78.90;;;;;;5074054;28;20483;-80
2023/03/18 00:05:13;;;;;;;0.33;0.33;;;11.30;80.20;;;;;;5074066;28;20809;-80
2023/03/18 00:07:40;;;;;;;0.83;0.40;;;11.30;79.30;;;;;;5073706;28;20531;-81
2023/03/18 00:10:08;;;;;;;1.80;0.50;;;11.20;78.90;;;;;;5073871;28;20471;-80
2023/03/18 00:12:37;;;;;;;0.67;0.40;;;11.20;79.00;;;;;;5073762;28;20491;-80
2023/03/18 00:15:05;;;;;;;0.60;0.50;;;11.20;78.90;;;;;;5073776;28;20544;-80
2023/03/18 00:17:33;;;;;;;0.43;0.43;;;11.10;79.00;;;;;;5073587;28;20816;-80
2023/03/18 00:20:04;;;;;;;0.40;0.40;;;11.10;79.30;;;;;;5073374;28;20468;-81
2023/03/18 00:22:31;;;;;;;0.40;0.30;;;11.10;79.80;;;;;;5073674;28;20438;-81
2023/03/18 00:24:58;;;;;;;0.80;0.40;;;11.10;78.60;;;;;;5073691;28;20461;-80
2023/03/18 00:27:25;;;;;;;0.40;0.30;;;11.10;78.90;;;;;;5073277;28;20588;-80
2023/03/18 00:29:52;;;;;;;0.40;0.40;;;11.00;79.10;;;;;;5073515;28;20469;-80
2023/03/18 00:32:19;;;;;;;3.90;0.57;;;11.10;80.00;;;;;;5073115;28;20832;-81
2023/03/18 00:34:47;;;;;;;0.50;0.43;;;11.10;80.20;;;;;;5073421;28;20487;-80
2023/03/18 00:37:18;;;;;;;0.40;0.40;;;11.10;80.50;;;;;;5073144;28;20460;-80
2023/03/18 00:39:45;;;;;;;0.73;0.40;;;11.10;80.50;;;;;;5074091;28;20484;-80
2023/03/18 00:42:13;;;;;;;1.43;0.60;;;11.00;81.10;;;;;;5073448;28;20446;-80
2023/03/18 00:44:42;;;;;;;0.40;0.40;;;11.00;80.70;;;;;;5073375;28;20450;-80
2023/03/18 00:47:09;;;;;;;0.70;0.50;;;11.00;80.90;;;;;;5073087;28;20468;-81
2023/03/18 00:49:36;;;;;;;0.40;0.40;;;11.00;80.90;;;;;;5073321;28;20473;-80
2023/03/18 00:52:04;;;;;;;0.60;0.60;;;11.00;80.20;;;;;;5073349;28;20449;-81
2023/03/18 00:54:32;;;;;;;0.40;0.30;;;11.10;80.80;;;;;;5073030;28;20449;-81
2023/03/18 00:56:59;;;;;;;0.40;0.40;;;11.10;81.40;;;;;;5073015;28;21012;-80
2023/03/18 00:59:26;;;;;;;1.23;0.50;;;11.00;82.00;;;;;;5076179;28;20476;-80
2023/03/18 01:01:53;;;;;;;0.40;0.40;;;11.00;81.10;;;;;;5079555;28;20953;-80
2023/03/18 01:04:20;;;;;;;0.40;0.40;;;11.00;80.50;;;;;;5079890;28;20485;-80
2023/03/18 01:06:47;;;;;;;0.87;0.60;;;11.00;81.10;;;;;;5079858;28;20445;-80
2023/03/18 01:09:15;;;;;;;0.60;0.40;;;11.10;80.80;;;;;;5079428;28;20485;-81
2023/03/18 01:11:42;;;;;;;0.93;0.60;;;11.00;81.30;;;;;;5079845;28;20637;-81
2023/03/18 01:14:09;;;;;;;0.40;0.40;;;11.00;80.60;;;;;;5079859;28;20491;-81
2023/03/18 01:16:36;;;;;;;0.50;0.40;;;11.00;80.60;;;;;;5079476;28;20962;-81
2023/03/18 01:19:03;;;;;;;0.50;0.50;;;11.00;80.80;;;;;;5079453;28;21033;-80
2023/03/18 01:21:30;;;;;;;0.40;0.30;;;11.00;81.50;;;;;;5079722;28;20449;-80
2023/03/18 01:23:59;;;;;;;0.50;0.50;;;11.00;81.20;;;;;;5079377;28;21009;-80
2023/03/18 01:26:27;;;;;;;0.57;0.40;;;11.00;80.60;;;;;;5079603;28;20449;-80
2023/03/18 01:28:54;;;;;;;0.77;0.77;;;11.10;81.10;;;;;;5079563;28;20488;-81
2023/03/18 01:31:20;;;;;;;0.50;0.50;;;11.10;80.80;;;;;;5079666;28;20441;-81
2023/03/18 01:33:47;;;;;;;2.70;0.70;;;11.10;81.10;;;;;;5079628;28;20556;-80
2023/03/18 01:36:14;;;;;;;0.30;0.30;;;11.00;81.60;;;;;;5079596;28;20480;-81
2023/03/18 01:38:41;;;;;;;0.60;0.37;;;11.00;81.80;;;;;;5079484;28;20468;-81
2023/03/18 01:41:08;;;;;;;1.13;0.60;;;11.00;81.40;;;;;;5079551;28;20456;-81
2023/03/18 01:43:39;;;;;;;0.43;0.40;;;11.00;81.00;;;;;;5079533;28;20456;-80
2023/03/18 01:46:30;;;;;;;0.40;0.40;;;11.00;80.90;;;;;;5079789;28;20598;-80
2023/03/18 01:48:57;;;;;;;0.37;0.30;;;11.00;80.90;;;;;;5079932;28;20518;-80
2023/03/18 01:51:26;;;;;;;0.47;0.47;;;11.00;81.00;;;;;;5079905;28;20523;-80
2023/03/18 01:53:54;;;;;;;0.40;0.40;;;11.10;80.60;;;;;;5079170;28;20488;-80
2023/03/18 01:56:21;;;;;;;0.50;0.50;;;11.00;80.50;;;;;;5079405;28;20445;-80
2023/03/18 01:58:53;;;;;;;0.40;0.30;;;11.00;80.70;;;;;;5079750;28;20480;-80
2023/03/18 02:01:24;;;;;;;0.40;0.40;;;11.00;80.90;;;;;;5079433;28;20434;-80
2023/03/18 02:03:53;;;;;;;0.80;0.30;;;11.00;82.10;;;;;;5080243;28;20448;-80
2023/03/18 02:06:19;;;;;;;0.70;0.50;;;11.00;82.10;;;;;;5079229;28;20483;-81
2023/03/18 02:08:46;;;;;;;0.40;0.40;;;11.00;82.40;;;;;;5079525;28;20492;-81
2023/03/18 02:11:14;;;;;;;0.90;0.53;;;10.90;81.40;;;;;;5076495;28;20945;-81
2023/03/18 02:13:43;;;;;;;0.67;0.43;;;10.90;82.30;;;;;;5077017;28;20488;-81
2023/03/18 02:16:16;;;;;;;0.70;0.47;;;10.90;82.40;;;;;;5076285;28;20449;-81
2023/03/18 02:18:47;;;;;;;0.40;0.40;;;10.70;82.80;;;;;;5076163;28;20465;-81
2023/03/18 02:21:26;;;;;;;0.80;0.80;;;10.70;83.60;;;;;;5076213;28;20442;-81
2023/03/18 02:24:00;;;;;;;0.40;0.30;;;10.60;84.10;;;;;;5075813;28;20423;-81
2023/03/18 02:26:34;;;;;;;0.40;0.40;;;10.60;84.00;;;;;;5075559;28;20949;-80
2023/03/18 02:29:04;;;;;;;0.40;0.40;;;10.50;83.70;;;;;;5075708;28;20496;-80
2023/03/18 02:31:32;;;;;;;0.40;0.40;;;10.50;83.50;;;;;;5075823;28;20437;-80
2023/03/18 02:34:00;;;;;;;0.90;0.77;;;10.50;84.80;;;;;;5075735;28;20446;-80
2023/03/18 02:36:29;;;;;;;0.50;0.50;;;10.60;83.90;;;;;;5075659;28;20548;-81
2023/03/18 02:38:59;;;;;;;0.40;0.30;;;10.60;84.30;;;;;;5075570;28;20473;-80
2023/03/18 02:41:28;;;;;;;2.77;0.33;;;10.60;84.50;;;;;;5075510;28;20441;-80
2023/03/18 02:43:54;;;;;;;0.40;0.33;;;10.60;83.90;;;;;;5075683;28;20465;-80
2023/03/18 02:46:29;;;;;;;0.40;0.37;;;10.60;83.40;;;;;;5075224;28;20846;-80
2023/03/18 02:48:57;;;;;;;0.40;0.37;;;10.70;84.40;;;;;;5075016;28;20899;-82
2023/03/18 02:51:25;;;;;;;0.40;0.40;;;10.60;84.20;;;;;;5075438;28;20446;-82
2023/03/18 02:53:54;;;;;;;0.60;0.30;;;10.60;83.90;;;;;;5075386;28;20441;-81
2023/03/18 02:56:22;;;;;;;0.60;0.40;;;10.60;84.20;;;;;;5075337;28;20504;-81
2023/03/18 02:58:49;;;;;;;0.57;0.57;;;10.60;85.20;;;;;;5075072;28;20476;-82
2023/03/18 03:01:15;;;;;;;0.40;0.33;;;10.50;84.20;;;;;;5075244;28;20445;-82
2023/03/18 03:03:43;;;;;;;0.40;0.30;;;10.50;84.30;;;;;;5075179;28;20457;-82
2023/03/18 03:06:10;;;;;;;0.33;0.30;;;10.50;84.10;;;;;;5075147;28;20453;-82
2023/03/18 03:08:37;;;;;;;0.40;0.40;;;10.50;84.80;;;;;;5074968;28;20498;-82
2023/03/18 03:11:05;;;;;;;0.43;0.40;;;10.60;85.00;;;;;;5075065;28;20936;-81
2023/03/18 03:13:31;;;;;;;0.50;0.30;;;10.50;85.20;;;;;;5074996;28;20441;-82
2023/03/18 03:15:58;;;;;;;0.83;0.37;;;10.40;85.00;;;;;;5074923;28;20457;-82
2023/03/18 03:18:25;;;;;;;1.27;0.50;;;10.40;85.00;;;;;;5074575;28;20507;-82
2023/03/18 03:20:53;;;;;;;0.73;0.40;;;10.30;85.70;;;;;;5074904;28;20481;-81
2023/03/18 03:23:20;;;;;;;0.40;0.40;;;10.40;85.80;;;;;;5074293;28;20457;-81
2023/03/18 03:25:46;;;;;;;0.30;0.30;;;10.30;85.60;;;;;;5075284;28;20450;-81
2023/03/18 03:28:15;;;;;;;0.47;0.47;;;10.30;85.90;;;;;;5074267;28;20493;-81
2023/03/18 03:30:42;;;;;;;0.40;0.30;;;10.20;86.30;;;;;;5074320;28;20460;-81
2023/03/18 03:33:09;;;;;;;0.50;0.40;;;10.20;86.70;;;;;;5074524;28;20449;-81
2023/03/18 03:35:37;;;;;;;0.63;0.50;;;10.20;86.10;;;;;;5074535;28;20732;-81
2023/03/18 03:38:05;;;;;;;0.30;0.30;;;10.10;86.10;;;;;;5074419;28;20489;-82
2023/03/18 03:40:32;;;;;;;1.00;0.43;;;10.10;88.30;;;;;;5074989;28;20449;-82
2023/03/18 03:42:59;;;;;;;0.70;0.70;;;10.10;88.30;;;;;;5074115;28;20449;-81
2023/03/18 03:45:26;;;;;;;0.40;0.30;;;10.10;87.40;;;;;;5074195;28;20453;-81
2023/03/18 03:47:53;;;;;;;0.40;0.40;;;10.10;88.20;;;;;;5074267;28;20440;-81
2023/03/18 03:50:20;;;;;;;0.40;0.30;;;10.00;88.10;;;;;;5073943;28;20480;-81
2023/03/18 03:52:48;;;;;;;0.40;0.40;;;10.00;87.70;;;;;;5074182;28;20460;-82
2023/03/18 03:55:19;;;;;;;0.90;0.40;;;10.00;88.30;;;;;;5073824;28;20449;-82
2023/03/18 03:57:47;;;;;;;0.40;0.33;;;10.00;87.70;;;;;;5074061;28;20453;-81
2023/03/18 04:00:17;;;;;;;0.30;0.30;;;10.00;88.10;;;;;;5074063;28;20454;-82
2023/03/18 04:02:45;;;;;;;0.30;0.30;;;9.90;89.70;;;;;;5074062;28;20426;-81
2023/03/18 04:05:13;;;;;;;1.53;0.60;;;9.90;89.40;;;;;;5073958;28;20472;-81
2023/03/18 04:07:41;;;;;;;0.40;0.40;;;9.90;89.00;;;;;;5073815;28;20446;-81
2023/03/18 04:10:09;;;;;;;0.30;0.30;;;9.90;89.90;;;;;;5073823;28;20550;-81
2023/03/18 04:12:38;;;;;;;0.87;0.50;;;9.90;90.10;;;;;;5073518;28;20929;-81
2023/03/18 04:15:06;;;;;;;0.30;0.30;;;9.80;90.10;;;;;;5073793;28;20446;-81
2023/03/18 04:17:33;;;;;;;0.40;0.40;;;9.80;90.20;;;;;;5073786;28;20456;-82
2023/03/18 04:20:00;;;;;;;0.40;0.30;;;9.80;90.10;;;;;;5073610;28;20465;-81
2023/03/18 04:22:28;;;;;;;0.50;0.50;;;9.70;90.40;;;;;;5073682;28;20449;-81
2023/03/18 04:24:55;;;;;;;0.60;0.40;;;9.70;90.30;;;;;;5073665;28;20453;-81
2023/03/18 04:27:22;;;;;;;0.40;0.30;;;9.70;90.60;;;;;;5073650;28;20454;-81
2023/03/18 04:29:50;;;;;;;0.30;0.30;;;9.70;90.50;;;;;;5073477;28;20482;-81
2023/03/18 04:32:17;;;;;;;0.40;0.37;;;9.70;90.70;;;;;;5073240;28;20870;-81
2023/03/18 04:34:44;;;;;;;0.30;0.30;;;9.60;91.10;;;;;;5072743;28;20949;-81
2023/03/18 04:37:13;;;;;;;1.27;0.30;;;9.60;91.10;;;;;;5073182;28;20933;-81
2023/03/18 04:39:40;;;;;;;0.40;0.30;;;9.60;91.10;;;;;;5073359;28;20515;-81
2023/03/18 04:42:07;;;;;;;3.77;0.50;;;9.50;90.70;;;;;;5073164;28;20957;-81
2023/03/18 04:44:34;;;;;;;0.53;0.50;;;9.50;91.20;;;;;;5073482;28;20457;-81
2023/03/18 04:47:02;;;;;;;0.70;0.50;;;9.50;91.10;;;;;;5073005;28;20572;-81
2023/03/18 04:49:29;;;;;;;0.57;0.57;;;9.50;91.00;;;;;;5073217;28;20480;-81
2023/03/18 04:51:56;;;;;;;1.00;0.80;;;9.40;91.50;;;;;;5073451;28;20433;-81
2023/03/18 04:54:22;;;;;;;0.30;0.30;;;9.40;91.20;;;;;;5073362;28;20448;-81
2023/03/18 04:56:49;;;;;;;0.50;0.40;;;9.40;91.50;;;;;;5073021;28;20457;-81
2023/03/18 04:59:17;;;;;;;0.70;0.50;;;9.30;91.90;;;;;;5073233;28;20474;-81
2023/03/18 05:01:43;;;;;;;0.50;0.40;;;9.30;92.10;;;;;;5072947;28;20825;-81
2023/03/18 05:04:11;;;;;;;0.40;0.40;;;9.30;91.80;;;;;;5072949;28;20453;-81
2023/03/18 05:06:38;;;;;;;1.27;0.40;;;9.30;92.20;;;;;;5073188;28;20449;-81
2023/03/18 05:09:05;;;;;;;0.33;0.30;;;9.20;92.00;;;;;;5073065;28;20899;-81
2023/03/18 05:11:32;;;;;;;0.40;0.40;;;9.30;91.80;;;;;;5072881;28;20971;-82
2023/03/18 05:13:59;;;;;;;0.40;0.30;;;9.20;91.50;;;;;;5073219;28;20541;-81
2023/03/18 05:16:26;;;;;;;0.50;0.40;;;9.30;91.60;;;;;;5072900;28;20835;-82
2023/03/18 05:18:52;;;;;;;0.70;0.40;;;9.30;91.60;;;;;;5073084;28;20477;-81
2023/03/18 05:21:20;;;;;;;0.43;0.40;;;9.20;92.00;;;;;;5072808;28;20994;-82
2023/03/18 05:23:47;;;;;;;0.40;0.30;;;9.20;92.10;;;;;;5073045;28;20445;-81
2023/03/18 05:26:15;;;;;;;0.40;0.30;;;9.10;92.30;;;;;;5073045;28;20445;-81
2023/03/18 05:28:42;;;;;;;0.37;0.37;;;9.10;92.00;;;;;;5072854;28;20475;-82
2023/03/18 05:31:09;;;;;;;0.50;0.50;;;9.00;92.50;;;;;;5072674;28;20956;-81
2023/03/18 05:33:36;;;;;;;0.50;0.50;;;9.00;92.60;;;;;;5072947;28;20445;-81
2023/03/18 05:36:03;;;;;;;1.43;0.67;;;9.00;92.60;;;;;;5072964;28;20539;-81
2023/03/18 05:38:31;;;;;;;0.70;0.40;;;8.90;92.50;;;;;;5072874;28;20476;-82
2023/03/18 05:40:57;;;;;;;0.40;0.40;;;8.90;92.70;;;;;;5072921;28;20845;-81
2023/03/18 05:43:25;;;;;;;0.30;0.30;;;8.80;92.80;;;;;;5072875;28;20461;-81
2023/03/18 05:45:52;;;;;;;3.97;0.70;;;8.80;92.70;;;;;;5073153;28;20496;-81
2023/03/18 05:48:19;;;;;;;0.50;0.50;;;8.80;93.50;;;;;;5076584;28;20468;-81
2023/03/18 05:50:46;;;;;;;0.40;0.40;;;8.80;93.90;;;;;;5077299;28;20488;-81
2023/03/18 05:53:15;;;;;;;0.40;0.40;;;8.80;94.50;;;;;;5076597;28;20612;-81
2023/03/18 05:55:43;;;;;;;1.73;0.80;;;8.80;94.90;;;;;;5076446;28;20457;-81
2023/03/18 05:58:11;;;;;;;0.40;0.30;;;8.80;94.50;;;;;;5076409;28;20476;-81
2023/03/18 06:00:38;;;;;;;0.40;0.40;;;8.80;94.20;;;;;;5077148;28;20502;-81
2023/03/18 06:03:05;;;;;;;2.10;0.40;;;8.80;94.60;;;;;;5076297;28;20500;-81
2023/03/18 06:05:32;;;;;;;0.40;0.40;;;8.80;94.70;;;;;;5076253;28;20557;-82
2023/03/18 06:07:59;;;;;;;0.50;0.50;;;8.80;94.90;;;;;;5075900;28;20961;-82
2023/03/18 06:10:26;;;;;;;0.40;0.40;;;8.80;95.30;;;;;;5075945;28;20509;-82
2023/03/18 06:12:55;;;;;;;0.47;0.47;;;8.70;95.10;;;;;;5076131;28;20458;-82
2023/03/18 06:15:22;;;;;;;2.97;1.33;;;8.70;95.30;;;;;;5076280;28;20529;-81
2023/03/18 06:17:49;;;;;;;0.50;0.40;;;8.70;95.10;;;;;;5075947;28;20450;-81
2023/03/18 06:20:17;;;;;;;0.50;0.50;;;8.80;95.60;;;;;;5076070;28;20511;-82
2023/03/18 06:22:48;;;;;;;0.40;0.30;;;8.80;95.30;;;;;;5076006;28;20536;-80
2023/03/18 06:25:16;;;;;;;0.40;0.37;;;8.90;95.50;;;;;;5076038;28;20438;-82
2023/03/18 06:27:43;;;;;;;0.50;0.40;;;9.00;95.00;;;;;;5075956;28;20453;-82
2023/03/18 06:30:12;;;;;;;0.50;0.50;;;9.10;95.10;;;;;;5075502;28;20573;-82
2023/03/18 06:32:39;;;;;;;0.60;0.40;;;9.20;94.70;;;;;;5076484;28;20825;-82
2023/03/18 06:35:06;;;;;;;0.40;0.30;;;9.40;94.60;;;;;;5075715;28;20477;-82
2023/03/18 06:37:33;;;;;;;0.60;0.60;;;9.50;94.80;;;;;;5075745;28;20453;-80
2023/03/18 06:40:00;;;;;;;0.37;0.30;;;9.50;95.00;;;;;;5075268;28;21042;-80
2023/03/18 06:42:27;;;;;;;1.03;0.40;;;9.50;94.90;;;;;;5075525;28;20461;-80
2023/03/18 06:44:54;;;;;;;1.33;0.60;;;9.50;94.60;;;;;;5075267;28;20453;-80
2023/03/18 06:47:22;;;;;;;0.30;0.30;;;9.50;94.10;;;;;;5075141;28;20488;-80
2023/03/18 06:49:49;;;;;;;0.30;0.30;;;9.50;94.30;;;;;;5075354;28;20482;-80
2023/03/18 06:52:17;;;;;;;0.50;0.40;;;9.60;94.10;;;;;;5075167;28;20444;-80
2023/03/18 06:54:44;;;;;;;0.40;0.30;;;9.60;94.10;;;;;;5075430;28;20445;-80
2023/03/18 06:57:11;;;;;;;1.03;0.50;;;9.70;93.90;;;;;;5074820;28;20453;-81
2023/03/18 06:59:38;;;;;;;0.73;0.40;;;9.80;95.10;;;;;;5075118;28;20531;-81
2023/03/18 07:02:07;;;;;;;0.50;0.50;;;9.90;94.00;;;;;;5075229;28;20538;-80
2023/03/18 07:04:35;;;;;;;0.50;0.40;;;10.00;92.70;;;;;;5075161;28;20457;-81
2023/03/18 07:07:02;;;;;;;2.10;0.60;;;10.00;93.10;;;;;;5075082;28;20450;-82
2023/03/18 07:09:30;;;;;;;0.57;0.33;;;10.10;93.40;;;;;;5074785;28;20484;-82
2023/03/18 07:11:57;;;;;;;2.10;0.40;;;10.20;93.70;;;;;;5075489;28;20489;-81
2023/03/18 07:14:27;;;;;;;0.37;0.33;;;10.30;93.10;;;;;;5075034;28;20457;-81
2023/03/18 07:16:54;;;;;;;0.50;0.50;;;10.40;92.80;;;;;;5074956;28;20492;-82
2023/03/18 07:19:21;;;;;;;1.37;0.30;;;10.50;92.20;;;;;;5074915;28;20465;-77
2023/03/18 07:21:50;;;;;;;1.03;0.87;;;10.60;91.90;;;;;;5075062;28;20465;-78
2023/03/18 07:24:19;;;;;;;1.60;0.37;;;10.70;91.70;;;;;;5075104;28;20528;-79
2023/03/18 07:26:49;;;;;;;0.60;0.40;;;10.80;92.10;;;;;;5074384;28;20487;-79
2023/03/18 07:29:16;;;;;;;0.80;0.40;;;10.90;91.60;;;;;;5074499;28;20458;-79
2023/03/18 07:31:47;;;;;;;0.60;0.40;;;11.00;91.30;;;;;;5074573;28;20438;-78
2023/03/18 07:34:16;;;;;;;0.40;0.30;;;11.10;91.10;;;;;;5074475;28;20511;-79
2023/03/18 07:36:44;;;;;;;1.23;0.50;;;11.20;91.00;;;;;;5074320;28;20521;-78
2023/03/18 07:39:12;;;;;;;0.47;0.47;;;11.20;90.80;;;;;;5074352;28;20477;-79
2023/03/18 07:41:38;;;;;;;1.07;0.50;;;11.30;90.60;;;;;;5074438;28;20449;-79
2023/03/18 07:44:06;;;;;;;1.90;0.80;;;11.40;90.80;;;;;;5074141;28;20446;-79
2023/03/18 07:46:33;;;;;;;0.40;0.30;;;11.50;91.00;;;;;;5073824;28;20516;-79
2023/03/18 07:49:00;;;;;;;7.50;0.50;;;11.50;90.00;;;;;;5073984;28;20460;-79
2023/03/18 07:51:27;;;;;;;0.40;0.37;;;11.60;89.40;;;;;;5073784;28;21092;-79
2023/03/18 07:53:54;;;;;;;0.30;0.30;;;11.70;89.80;;;;;;5073969;28;20437;-79
2023/03/18 07:56:22;;;;;;;0.40;0.30;;;11.70;89.70;;;;;;5073838;28;20453;-79
2023/03/18 07:58:48;;;;;;;0.70;0.40;;;11.80;88.70;;;;;;5074027;28;20468;-79
2023/03/18 08:01:17;;;;;;;0.60;0.40;;;11.90;87.40;;;;;;5073843;28;20438;-79
2023/03/18 08:03:45;;;;;;;5.27;1.63;;;11.90;88.00;;;;;;5073768;28;20545;-79
2023/03/18 08:06:12;;;;;;;0.50;0.30;;;12.00;87.30;;;;;;5073885;28;20949;-79
2023/03/18 08:08:39;;;;;;;0.60;0.60;;;12.10;87.40;;;;;;5073068;28;20481;-79
2023/03/18 08:11:08;;;;;;;0.40;0.40;;;12.30;87.80;;;;;;5073496;28;20573;-79
2023/03/18 08:13:36;;;;;;;0.40;0.40;;;12.30;86.60;;;;;;5073850;28;20499;-79
2023/03/18 08:16:03;;;;;;;0.50;0.40;;;12.40;86.20;;;;;;5073569;28;20445;-79
2023/03/18 08:18:30;;;;;;;2.20;0.50;;;12.50;85.50;;;;;;5073703;28;20465;-79
2023/03/18 08:20:56;;;;;;;0.60;0.40;;;12.70;85.50;;;;;;5073738;28;20484;-79
2023/03/18 08:23:24;;;;;;;0.40;0.40;;;12.80;85.80;;;;;;5073473;28;20491;-79
2023/03/18 08:25:51;;;;;;;0.53;0.40;;;13.00;84.10;;;;;;5073632;28;20485;-79
2023/03/18 08:28:18;;;;;;;0.93;0.50;;;13.10;82.70;;;;;;5074298;28;20813;-79
2023/03/18 08:30:46;;;;;;;0.40;0.40;;;13.20;82.50;;;;;;5073526;28;20493;-79
2023/03/18 08:33:13;;;;;;;0.50;0.30;;;13.30;82.70;;;;;;5073476;28;20807;-79
2023/03/18 08:35:41;;;;;;;0.60;0.40;;;13.60;82.30;;;;;;5073291;28;20436;-79
2023/03/18 08:38:08;;;;;;;0.70;0.30;;;13.70;80.40;;;;;;5073328;28;20497;-79
2023/03/18 08:40:34;;;;;;;0.70;0.50;;;13.90;79.80;;;;;;5073175;28;20960;-79
2023/03/18 08:43:01;;;;;;;0.47;0.40;;;14.00;77.80;;;;;;5073485;28;20449;-79
2023/03/18 08:45:28;;;;;;;0.40;0.40;;;14.20;76.70;;;;;;5072957;28;20945;-79
2023/03/18 08:47:56;;;;;;;1.87;0.30;;;14.30;77.30;;;;;;5073066;28;20909;-78
2023/03/18 08:50:27;;;;;;;0.40;0.40;;;14.50;75.60;;;;;;5073049;28;20480;-78
2023/03/18 08:52:55;;;;;;;0.50;0.50;;;14.60;71.00;;;;;;5073427;28;20445;-79
2023/03/18 08:55:22;;;;;;;0.40;0.40;;;14.80;71.40;;;;;;5073347;28;20457;-78
2023/03/18 08:57:50;;;;;;;0.30;0.30;;;15.00;71.50;;;;;;5073221;28;20449;-81
2023/03/18 09:00:18;;;;;;;0.60;0.40;;;15.20;72.50;;;;;;5073253;28;20459;-80
2023/03/18 09:02:46;;;;;;;0.90;0.50;;;15.40;72.60;;;;;;5072950;28;20538;-81
2023/03/18 09:05:14;;;;;;;0.40;0.40;;;15.60;68.10;;;;;;5073456;28;20441;-80
2023/03/18 09:07:41;;;;;;;0.40;0.40;;;15.80;69.50;;;;;;5072809;28;20963;-81
2023/03/18 09:10:09;;;;;;;0.30;0.30;;;16.20;68.50;;;;;;5073068;28;20914;-78
2023/03/18 09:12:35;;;;;;;0.60;0.60;;;16.50;66.60;;;;;;5073187;28;20454;-79
2023/03/18 09:15:06;;;;;;;0.70;0.50;;;17.20;67.10;;;;;;5072877;28;20799;-79
2023/03/18 09:17:32;;;;;;;0.40;0.40;;;18.20;64.00;;;;;;5073326;28;20445;-76
2023/03/18 09:20:00;;;;;;;1.60;0.50;;;19.70;60.80;;;;;;5073613;28;20457;-76
2023/03/18 09:22:28;;;;;;;0.77;0.30;;;21.00;58.90;;;;;;5076796;28;20452;-79
2023/03/18 09:24:54;;;;;;;0.77;0.77;;;22.20;56.60;;;;;;5076990;28;20847;-78
2023/03/18 09:27:21;;;;;;;1.07;0.40;;;23.20;53.30;;;;;;5077036;28;20468;-79
2023/03/18 09:29:48;;;;;;;0.40;0.40;;;24.30;51.70;;;;;;5076784;28;20219;-79
2023/03/18 09:32:15;;;;;;;0.40;0.40;;;25.70;47.80;;;;;;5076775;28;20237;-79
2023/03/18 09:34:41;;;;;;;0.50;0.50;;;27.00;46.40;;;;;;5076777;28;20207;-79
2023/03/18 09:37:08;;;;;;;0.50;0.50;;;27.80;43.00;;;;;;5076476;28;20704;-79
2023/03/18 09:39:37;;;;;;;3.00;0.60;;;28.70;41.10;;;;;;5076612;28;20309;-79
2023/03/18 09:42:17;;;;;;;0.52;0.52;;;28.70;38.40;;;;;;5076643;28;20256;-79
2023/03/18 09:44:44;;;;;;;0.40;0.40;;;29.30;38.80;;;;;;5076475;28;20179;-80
2023/03/18 09:47:28;;;;;;;0.57;0.57;;;30.00;38.60;;;;;;5076318;28;20230;-79
2023/03/18 09:50:19;;;;;;;0.45;0.45;;;30.50;37.70;;;;;;5076395;28;20227;-79
2023/03/18 09:52:52;;;;;;;0.57;0.50;;;30.40;34.80;;;;;;5076457;28;20202;-79
2023/03/18 09:55:27;;;;;;;1.05;0.50;;;30.30;35.10;;;;;;5076547;28;20187;-79
2023/03/18 09:57:58;;;;;;;0.50;0.50;;;30.20;34.40;;;;;;5076834;28;20286;-79
2023/03/18 10:00:29;;;;;;;0.45;0.45;;;30.10;36.40;;;;;;5076465;28;20183;-79
2023/03/18 10:03:02;;;;;;;0.60;0.40;;;29.90;36.60;;;;;;5076382;28;20183;-75
2023/03/18 10:05:33;;;;;;;0.43;0.43;;;29.70;36.10;;;;;;5077141;28;20194;-79
2023/03/18 10:08:04;;;;;;;0.40;0.40;;;29.50;36.50;;;;;;5076522;28;20631;-79
2023/03/18 10:10:37;;;;;;;1.33;0.47;;;29.30;37.40;;;;;;5076851;28;20229;-79
2023/03/18 10:13:14;;;;;;;0.40;0.40;;;29.60;37.40;;;;;;5076181;28;20190;-79
2023/03/18 10:15:45;;;;;;;0.55;0.55;;;29.60;35.40;;;;;;5076008;28;20206;-79
2023/03/18 10:18:16;;;;;;;1.20;0.52;;;29.60;34.90;;;;;;5076412;28;20253;-79
2023/03/18 10:20:55;;;;;;;0.70;0.47;;;28.00;35.60;;;;;;5076791;28;20253;-80
2023/03/18 10:23:30;;;;;;;0.95;0.40;;;27.30;36.70;;;;;;5075698;28;20677;-79
2023/03/18 10:26:05;;;;;;;1.00;0.50;;;26.90;39.70;;;;;;5075709;28;20197;-79
2023/03/18 10:28:44;;;;;;;0.40;0.40;;;27.00;39.30;;;;;;5075595;28;20747;-79
2023/03/18 10:31:24;;;;;;;0.82;0.40;;;27.40;37.90;;;;;;5075337;28;20215;-79
2023/03/18 10:33:58;;;;;;;0.50;0.50;;;27.70;37.40;;;;;;5075724;28;20196;-80
2023/03/18 10:36:31;;;;;;;0.55;0.45;;;27.40;36.30;;;;;;5075771;28;20191;-79
2023/03/18 10:39:01;;;;;;;0.47;0.47;;;27.20;38.30;;;;;;5075577;28;20255;-80
2023/03/18 10:41:34;;;;;;;0.70;0.50;;;27.30;38.50;;;;;;5075664;28;20198;-79
2023/03/18 10:44:03;;;;;;;1.00;0.45;;;27.20;38.20;;;;;;5075731;28;20190;-80
2023/03/18 10:46:31;;;;;;;0.50;0.50;;;27.20;37.40;;;;;;5075192;28;20717;-79
2023/03/18 10:49:05;;;;;;;1.05;0.50;;;27.30;39.50;;;;;;5075757;28;20693;-79
2023/03/18 10:51:36;;;;;;;0.98;0.50;;;28.10;38.20;;;;;;5075984;28;20219;-79
2023/03/18 10:54:09;;;;;;;0.40;0.40;;;29.60;38.80;;;;;;5075444;28;20202;-79
2023/03/18 10:56:37;;;;;;;0.40;0.40;;;31.10;36.70;;;;;;5075390;28;20187;-79
2023/03/18 10:59:12;;;;;;;1.80;0.50;;;31.90;33.60;;;;;;5074998;28;20225;-80
2023/03/18 11:01:40;;;;;;;1.08;0.45;;;32.80;33.80;;;;;;5075351;28;20186;-79
2023/03/18 11:04:13;;;;;;;0.60;0.60;;;33.60;32.90;;;;;;5075024;28;20667;-79
2023/03/18 11:06:44;;;;;;;0.60;0.60;;;33.70;31.00;;;;;;5075863;28;20694;-80
2023/03/18 11:09:13;;;;;;;0.73;0.40;;;33.00;31.80;;;;;;5075120;28;20250;-79
2023/03/18 11:11:43;;;;;;;0.50;0.40;;;32.20;32.20;;;;;;5074996;28;20227;-80
2023/03/18 11:14:16;;;;;;;0.57;0.50;;;30.70;33.10;;;;;;5075086;28;20210;-80
2023/03/18 11:16:48;;;;;;;0.60;0.40;;;29.20;37.10;;;;;;5075114;28;20681;-80
2023/03/18 11:19:29;;;;;;;0.70;0.40;;;27.30;36.40;;;;;;5074580;28;20230;-79
2023/03/18 11:22:05;;;;;;;0.60;0.50;;;25.90;38.70;;;;;;5074866;28;20218;-79
2023/03/18 11:24:38;;;;;;;1.55;0.50;;;24.80;39.70;;;;;;5074729;28;20195;-79
2023/03/18 11:27:25;;;;;;;0.50;0.50;;;24.10;41.10;;;;;;5074820;28;20198;-79
2023/03/18 11:29:57;;;;;;;0.50;0.43;;;23.30;41.30;;;;;;5074674;28;20602;-79
2023/03/18 11:32:26;;;;;;;0.57;0.50;;;22.70;43.80;;;;;;5074644;28;20214;-79
2023/03/18 11:34:57;;;;;;;0.60;0.60;;;22.10;43.90;;;;;;5074496;28;20642;-78
2023/03/18 11:37:29;;;;;;;1.33;0.70;;;21.80;44.40;;;;;;5074566;28;20613;-79
2023/03/18 11:40:21;;;;;;;1.17;0.60;;;21.50;44.80;;;;;;5074425;28;20476;-80
2023/03/18 11:42:55;;;;;;;0.40;0.40;;;21.30;45.10;;;;;;5072386;28;20453;-85
2023/03/18 11:45:40;;;;;;;1.83;0.53;;;21.20;45.90;;;;;;5074949;28;20447;-84
2023/03/18 11:48:22;;;;;;;0.80;0.50;;;21.10;46.90;;;;;;5075227;28;20543;-84
2023/03/18 11:51:21;;;;;;;0.40;0.40;;;20.90;44.80;;;;;;5074772;28;20433;-83
2023/03/18 11:54:09;;;;;;;1.47;0.50;;;20.70;45.60;;;;;;5074434;28;20528;-84
2023/03/18 11:56:42;;;;;;;0.93;0.60;;;20.70;45.70;;;;;;5074349;28;20479;-84
2023/03/18 11:59:27;;;;;;;0.50;0.50;;;20.30;44.80;;;;;;5074070;28;20465;-84
2023/03/18 12:02:26;;;;;;;1.47;0.50;;;20.20;45.60;;;;;;5074191;28;20461;-84
2023/03/18 12:05:20;;;;;;;0.50;0.40;;;20.10;46.40;;;;;;5038163;28;20801;-84
2023/03/18 12:08:03;;;;;;;1.00;0.50;;;20.00;47.10;;;;;;5074134;28;20460;-84
2023/03/18 12:10:34;;;;;;;3.03;0.60;;;19.90;46.60;;;;;;5075520;28;20429;-85
2023/03/18 12:13:28;;;;;;;0.40;0.30;;;19.70;46.80;;;;;;5073952;28;20523;-84
2023/03/18 12:16:07;;;;;;;2.53;0.67;;;19.60;47.30;;;;;;5074316;28;20544;-85
2023/03/18 12:18:55;;;;;;;0.43;0.40;;;19.60;46.50;;;;;;5073526;28;20473;-84
2023/03/18 12:21:38;;;;;;;0.40;0.40;;;19.50;45.50;;;;;;5073959;28;20465;-85
2023/03/18 12:24:21;;;;;;;0.40;0.40;;;19.40;46.80;;;;;;5073480;28;20931;-85
2023/03/18 12:26:57;;;;;;;0.77;0.40;;;19.30;46.90;;;;;;5073867;28;20910;-84
2023/03/18 12:29:41;;;;;;;0.90;0.50;;;19.10;46.30;;;;;;5073579;28;20469;-84
2023/03/18 12:32:24;;;;;;;0.60;0.53;;;19.00;47.00;;;;;;5073860;28;20988;-85
2023/03/18 12:35:09;;;;;;;0.40;0.40;;;18.90;46.40;;;;;;5074507;28;20406;-84
2023/03/18 12:37:50;;;;;;;0.43;0.40;;;18.90;47.30;;;;;;5073709;28;20444;-84
2023/03/18 12:40:34;;;;;;;0.70;0.50;;;18.80;46.80;;;;;;5073859;28;20959;-85
2023/03/18 12:43:29;;;;;;;0.40;0.40;;;18.70;45.80;;;;;;5074465;28;20426;-85
2023/03/18 12:46:03;;;;;;;0.70;0.40;;;18.50;45.60;;;;;;5073779;28;20480;-85
2023/03/18 12:48:37;;;;;;;0.40;0.40;;;18.40;45.10;;;;;;5075421;28;20476;-86
2023/03/18 12:51:10;;;;;;;2.20;0.63;;;18.30;45.60;;;;;;5074201;28;20436;-86
2023/03/18 12:53:43;;;;;;;2.93;0.50;;;18.20;46.90;;;;;;5074626;28;20438;-86
2023/03/18 12:56:13;;;;;;;0.73;0.60;;;18.20;47.90;;;;;;5074732;28;20901;-85
2023/03/18 12:58:45;;;;;;;0.50;0.40;;;18.20;48.40;;;;;;5074382;28;20466;-86
2023/03/18 13:01:18;;;;;;;0.50;0.40;;;18.20;48.60;;;;;;5074167;28;20453;-86
2023/03/18 13:03:51;;;;;;;0.40;0.40;;;18.20;47.10;;;;;;5074807;28;20439;-86